sensor_id;sensor_type;location;lat;lon;timestamp;pressure;altitude;pressure_sealevel;temperature;humidity
22031;BME280;11179;52.106;21.024;2023-06-10T00:01:40;100375.53;;;19.40;56.60
22031;BME280;11179;52.106;21.024;2023-06-10T00:04:06;100380.59;;;19.38;56.71
22031;BME280;11179;52.106;21.024;2023-06-10T00:06:32;100375.97;;;19.33;56.65
22031;BME280;11179;52.106;21.024;2023-06-10T00:09:04;100381.69;;;19.28;56.65
22031;BME280;11179;52.106;21.024;2023-06-10T00:11:31;100379.91;;;19.32;56.41
22031;BME280;11179;52.106;21.024;2023-06-10T00:13:56;100379.06;;;19.32;56.10
22031;BME280;11179;52.106;21.024;2023-06-10T00:16:22;100372.19;;;19.29;56.10
22031;BME280;11179;52.106;21.024;2023-06-10T00:18:52;100376.13;;;19.28;55.90
22031;BME280;11179;52.106;21.024;2023-06-10T00:21:22;100367.47;;;19.30;56.00
22031;BME280;11179;52.106;21.024;2023-06-10T00:23:49;100368.28;;;19.30;55.97
22031;BME280;11179;52.106;21.024;2023-06-10T00:26:17;100368.44;;;19.34;56.10
22031;BME280;11179;52.106;21.024;2023-06-10T00:28:43;100371.69;;;19.27;56.08
22031;BME280;11179;52.106;21.024;2023-06-10T00:31:26;100354.28;;;19.22;56.11
22031;BME280;11179;52.106;21.024;2023-06-10T00:34:01;100356.94;;;19.27;56.30
22031;BME280;11179;52.106;21.024;2023-06-10T00:36:32;100359.41;;;19.28;56.27
22031;BME280;11179;52.106;21.024;2023-06-10T00:38:58;100349.97;;;19.16;56.03
22031;BME280;11179;52.106;21.024;2023-06-10T00:41:24;100365.19;;;19.18;55.85
22031;BME280;11179;52.106;21.024;2023-06-10T00:43:53;100360.75;;;19.17;55.84
22031;BME280;11179;52.106;21.024;2023-06-10T00:46:18;100355.75;;;19.06;55.17
22031;BME280;11179;52.106;21.024;2023-06-10T00:48:47;100364.00;;;19.11;54.77
22031;BME280;11179;52.106;21.024;2023-06-10T00:51:13;100375.84;;;19.16;54.47
22031;BME280;11179;52.106;21.024;2023-06-10T00:53:42;100370.38;;;19.11;54.08
22031;BME280;11179;52.106;21.024;2023-06-10T00:56:08;100367.59;;;19.11;53.89
22031;BME280;11179;52.106;21.024;2023-06-10T00:58:34;100364.09;;;19.06;53.40
22031;BME280;11179;52.106;21.024;2023-06-10T01:01:00;100388.66;;;19.04;53.03
22031;BME280;11179;52.106;21.024;2023-06-10T01:03:28;100369.41;;;18.93;52.71
22031;BME280;11179;52.106;21.024;2023-06-10T01:06:01;100370.16;;;18.85;52.59
22031;BME280;11179;52.106;21.024;2023-06-10T01:08:55;100358.56;;;18.70;52.40
22031;BME280;11179;52.106;21.024;2023-06-10T01:11:34;100355.16;;;18.73;52.24
22031;BME280;11179;52.106;21.024;2023-06-10T01:14:03;100374.00;;;18.76;51.78
22031;BME280;11179;52.106;21.024;2023-06-10T01:16:30;100374.00;;;18.76;51.61
22031;BME280;11179;52.106;21.024;2023-06-10T01:18:59;100372.16;;;18.71;51.04
22031;BME280;11179;52.106;21.024;2023-06-10T01:21:27;100354.88;;;18.60;50.74
22031;BME280;11179;52.106;21.024;2023-06-10T01:23:56;100350.75;;;18.58;50.96
22031;BME280;11179;52.106;21.024;2023-06-10T01:26:28;100366.38;;;18.68;50.44
22031;BME280;11179;52.106;21.024;2023-06-10T01:28:59;100376.91;;;18.71;50.51
22031;BME280;11179;52.106;21.024;2023-06-10T01:32:29;100377.72;;;18.71;49.98
22031;BME280;11179;52.106;21.024;2023-06-10T01:34:31;100382.06;;;18.63;49.70
22031;BME280;11179;52.106;21.024;2023-06-10T01:37:00;100380.22;;;18.45;49.54
22031;BME280;11179;52.106;21.024;2023-06-10T01:39:28;100371.69;;;18.42;49.30
22031;BME280;11179;52.106;21.024;2023-06-10T01:41:56;100387.13;;;18.48;49.27
22031;BME280;11179;52.106;21.024;2023-06-10T01:44:24;100379.19;;;18.41;49.03
22031;BME280;11179;52.106;21.024;2023-06-10T01:46:50;100376.22;;;18.38;49.09
22031;BME280;11179;52.106;21.024;2023-06-10T01:49:21;100371.25;;;18.35;48.68
22031;BME280;11179;52.106;21.024;2023-06-10T01:51:52;100402.16;;;18.47;48.36
22031;BME280;11179;52.106;21.024;2023-06-10T01:54:17;100403.50;;;18.36;47.89
22031;BME280;11179;52.106;21.024;2023-06-10T01:56:43;100392.16;;;18.18;47.78
22031;BME280;11179;52.106;21.024;2023-06-10T01:59:09;100387.09;;;18.07;47.61
22031;BME280;11179;52.106;21.024;2023-06-10T02:01:42;100396.66;;;18.14;47.60
22031;BME280;11179;52.106;21.024;2023-06-10T02:04:13;100404.69;;;18.16;47.48
22031;BME280;11179;52.106;21.024;2023-06-10T02:06:39;100399.75;;;18.13;47.08
22031;BME280;11179;52.106;21.024;2023-06-10T02:09:11;100405.31;;;18.13;46.80
22031;BME280;11179;52.106;21.024;2023-06-10T02:11:39;100399.66;;;18.04;46.91
22031;BME280;11179;52.106;21.024;2023-06-10T02:14:06;100410.25;;;18.02;46.45
22031;BME280;11179;52.106;21.024;2023-06-10T02:16:32;100411.50;;;17.96;46.48
22031;BME280;11179;52.106;21.024;2023-06-10T02:18:58;100380.63;;;17.84;46.42
22031;BME280;11179;52.106;21.024;2023-06-10T02:21:23;100401.06;;;17.88;46.29
22031;BME280;11179;52.106;21.024;2023-06-10T02:23:49;100403.84;;;17.88;46.28
22031;BME280;11179;52.106;21.024;2023-06-10T02:26:15;100407.75;;;17.87;45.99
22031;BME280;11179;52.106;21.024;2023-06-10T02:28:46;100386.56;;;17.77;45.69
22031;BME280;11179;52.106;21.024;2023-06-10T02:31:14;100412.69;;;17.90;45.68
22031;BME280;11179;52.106;21.024;2023-06-10T02:33:49;100399.91;;;17.75;45.17
22031;BME280;11179;52.106;21.024;2023-06-10T02:36:19;100408.03;;;17.72;45.34
22031;BME280;11179;52.106;21.024;2023-06-10T02:38:47;100411.50;;;17.64;45.02
22031;BME280;11179;52.106;21.024;2023-06-10T02:41:12;100426.88;;;17.75;45.08
22031;BME280;11179;52.106;21.024;2023-06-10T02:43:38;100416.47;;;17.67;44.97
22031;BME280;11179;52.106;21.024;2023-06-10T02:46:04;100426.34;;;17.73;44.77
22031;BME280;11179;52.106;21.024;2023-06-10T02:48:30;100432.00;;;17.68;44.78
22031;BME280;11179;52.106;21.024;2023-06-10T02:50:55;100436.13;;;17.70;44.55
22031;BME280;11179;52.106;21.024;2023-06-10T02:53:24;100434.66;;;17.73;44.61
22031;BME280;11179;52.106;21.024;2023-06-10T02:55:52;100400.22;;;17.41;44.51
22031;BME280;11179;52.106;21.024;2023-06-10T02:58:17;100396.81;;;17.44;44.57
22031;BME280;11179;52.106;21.024;2023-06-10T03:00:43;100395.69;;;17.45;44.57
22031;BME280;11179;52.106;21.024;2023-06-10T03:03:10;100438.38;;;17.68;44.51
22031;BME280;11179;52.106;21.024;2023-06-10T03:05:35;100426.53;;;17.63;44.45
22031;BME280;11179;52.106;21.024;2023-06-10T03:08:01;100447.94;;;17.76;44.34
22031;BME280;11179;52.106;21.024;2023-06-10T03:10:26;100444.66;;;17.74;44.55
22031;BME280;11179;52.106;21.024;2023-06-10T03:12:52;100456.28;;;17.76;44.56
22031;BME280;11179;52.106;21.024;2023-06-10T03:15:17;100462.97;;;17.75;44.47
22031;BME280;11179;52.106;21.024;2023-06-10T03:17:42;100453.44;;;17.81;44.54
22031;BME280;11179;52.106;21.024;2023-06-10T03:20:08;100469.91;;;17.91;44.44
22031;BME280;11179;52.106;21.024;2023-06-10T03:22:37;100464.34;;;17.91;44.37
22031;BME280;11179;52.106;21.024;2023-06-10T03:25:07;100465.84;;;18.16;44.03
22031;BME280;11179;52.106;21.024;2023-06-10T03:27:33;100463.63;;;18.59;43.65
22031;BME280;11179;52.106;21.024;2023-06-10T03:30:00;100472.03;;;18.95;43.42
22031;BME280;11179;52.106;21.024;2023-06-10T03:32:25;100475.53;;;19.14;42.98
22031;BME280;11179;52.106;21.024;2023-06-10T03:34:50;100468.72;;;19.07;42.65
22031;BME280;11179;52.106;21.024;2023-06-10T03:37:16;100465.84;;;19.12;42.66
22031;BME280;11179;52.106;21.024;2023-06-10T03:39:42;100472.44;;;19.16;42.06
22031;BME280;11179;52.106;21.024;2023-06-10T03:42:07;100460.81;;;19.00;42.38
22031;BME280;11179;52.106;21.024;2023-06-10T03:44:33;100472.84;;;19.23;42.29
22031;BME280;11179;52.106;21.024;2023-06-10T03:46:59;100483.75;;;19.19;42.32
22031;BME280;11179;52.106;21.024;2023-06-10T03:49:25;100464.81;;;19.08;42.22
22031;BME280;11179;52.106;21.024;2023-06-10T03:51:52;100475.31;;;19.11;42.31
22031;BME280;11179;52.106;21.024;2023-06-10T03:54:17;100472.53;;;19.11;42.45
22031;BME280;11179;52.106;21.024;2023-06-10T03:56:45;100485.63;;;19.24;42.55
22031;BME280;11179;52.106;21.024;2023-06-10T03:59:11;100484.03;;;19.18;42.82
22031;BME280;11179;52.106;21.024;2023-06-10T04:01:39;100481.72;;;18.97;43.12
22031;BME280;11179;52.106;21.024;2023-06-10T04:04:06;100476.38;;;19.01;42.92
22031;BME280;11179;52.106;21.024;2023-06-10T04:06:32;100485.25;;;18.89;43.35
22031;BME280;11179;52.106;21.024;2023-06-10T04:09:01;100485.75;;;18.91;43.32
22031;BME280;11179;52.106;21.024;2023-06-10T04:11:27;100487.78;;;19.13;43.43
22031;BME280;11179;52.106;21.024;2023-06-10T04:13:52;100473.47;;;19.20;42.98
22031;BME280;11179;52.106;21.024;2023-06-10T04:16:21;100489.34;;;19.78;42.52
22031;BME280;11179;52.106;21.024;2023-06-10T04:18:47;100487.56;;;20.04;42.15
22031;BME280;11179;52.106;21.024;2023-06-10T04:21:12;100452.63;;;20.29;41.66
22031;BME280;11179;52.106;21.024;2023-06-10T04:23:41;100481.25;;;20.52;41.28
22031;BME280;11179;52.106;21.024;2023-06-10T04:26:07;100465.44;;;20.38;41.41
22031;BME280;11179;52.106;21.024;2023-06-10T04:28:35;100486.91;;;20.69;40.97
22031;BME280;11179;52.106;21.024;2023-06-10T04:31:01;100472.34;;;20.41;41.30
22031;BME280;11179;52.106;21.024;2023-06-10T04:33:29;100472.09;;;20.20;41.65
22031;BME280;11179;52.106;21.024;2023-06-10T04:35:55;100485.31;;;20.37;41.95
22031;BME280;11179;52.106;21.024;2023-06-10T04:38:20;100482.44;;;20.59;41.20
22031;BME280;11179;52.106;21.024;2023-06-10T04:40:46;100494.00;;;20.75;40.87
22031;BME280;11179;52.106;21.024;2023-06-10T04:43:11;100490.28;;;20.88;40.98
22031;BME280;11179;52.106;21.024;2023-06-10T04:45:38;100492.78;;;21.33;40.30
22031;BME280;11179;52.106;21.024;2023-06-10T04:48:03;100489.19;;;21.84;39.92
22031;BME280;11179;52.106;21.024;2023-06-10T04:50:28;100494.06;;;22.22;39.32
22031;BME280;11179;52.106;21.024;2023-06-10T04:52:54;100486.34;;;22.27;38.99
22031;BME280;11179;52.106;21.024;2023-06-10T04:55:23;100489.59;;;22.38;38.94
22031;BME280;11179;52.106;21.024;2023-06-10T04:57:48;100500.97;;;22.71;38.74
22031;BME280;11179;52.106;21.024;2023-06-10T05:00:14;100496.59;;;22.99;38.09
22031;BME280;11179;52.106;21.024;2023-06-10T05:02:39;100497.91;;;23.23;37.59
22031;BME280;11179;52.106;21.024;2023-06-10T05:05:05;100500.69;;;23.43;37.66
22031;BME280;11179;52.106;21.024;2023-06-10T05:07:31;100499.16;;;23.75;36.86
22031;BME280;11179;52.106;21.024;2023-06-10T05:09:56;100506.00;;;23.99;36.50
22031;BME280;11179;52.106;21.024;2023-06-10T05:12:21;100492.50;;;24.13;36.38
22031;BME280;11179;52.106;21.024;2023-06-10T05:14:47;100501.97;;;24.53;35.83
22031;BME280;11179;52.106;21.024;2023-06-10T05:17:12;100499.06;;;24.74;35.57
22031;BME280;11179;52.106;21.024;2023-06-10T05:19:38;100504.34;;;24.88;35.14
22031;BME280;11179;52.106;21.024;2023-06-10T05:22:03;100510.41;;;24.66;34.67
22031;BME280;11179;52.106;21.024;2023-06-10T05:24:29;100513.22;;;24.66;35.42
22031;BME280;11179;52.106;21.024;2023-06-10T05:26:54;100507.16;;;24.88;34.72
22031;BME280;11179;52.106;21.024;2023-06-10T05:29:19;100511.16;;;24.99;34.58
22031;BME280;11179;52.106;21.024;2023-06-10T05:31:45;100521.22;;;25.00;34.97
22031;BME280;11179;52.106;21.024;2023-06-10T05:34:10;100513.63;;;25.01;34.38
22031;BME280;11179;52.106;21.024;2023-06-10T05:36:35;100516.16;;;24.81;34.55
22031;BME280;11179;52.106;21.024;2023-06-10T05:39:01;100509.88;;;24.96;34.96
22031;BME280;11179;52.106;21.024;2023-06-10T05:41:26;100516.47;;;25.41;34.38
22031;BME280;11179;52.106;21.024;2023-06-10T05:43:51;100512.72;;;25.89;34.27
22031;BME280;11179;52.106;21.024;2023-06-10T05:46:17;100510.69;;;26.17;33.58
22031;BME280;11179;52.106;21.024;2023-06-10T05:48:43;100505.31;;;26.12;33.24
22031;BME280;11179;52.106;21.024;2023-06-10T05:51:08;100504.06;;;26.10;33.42
22031;BME280;11179;52.106;21.024;2023-06-10T05:53:33;100504.84;;;26.38;33.18
22031;BME280;11179;52.106;21.024;2023-06-10T05:55:59;100508.13;;;26.56;32.59
22031;BME280;11179;52.106;21.024;2023-06-10T05:58:24;100511.06;;;26.59;32.66
22031;BME280;11179;52.106;21.024;2023-06-10T06:00:49;100503.78;;;26.43;32.59
22031;BME280;11179;52.106;21.024;2023-06-10T06:03:15;100503.94;;;26.65;32.82
22031;BME280;11179;52.106;21.024;2023-06-10T06:05:40;100505.94;;;27.12;32.91
22031;BME280;11179;52.106;21.024;2023-06-10T06:08:09;100501.44;;;27.42;32.17
22031;BME280;11179;52.106;21.024;2023-06-10T06:10:35;100501.59;;;27.69;31.75
22031;BME280;11179;52.106;21.024;2023-06-10T06:13:00;100505.97;;;27.31;31.70
22031;BME280;11179;52.106;21.024;2023-06-10T06:15:29;100504.91;;;27.20;32.14
22031;BME280;11179;52.106;21.024;2023-06-10T06:17:57;100507.63;;;27.17;31.68
22031;BME280;11179;52.106;21.024;2023-06-10T06:20:23;100507.78;;;26.73;32.11
22031;BME280;11179;52.106;21.024;2023-06-10T06:22:48;100505.84;;;26.77;32.32
22031;BME280;11179;52.106;21.024;2023-06-10T06:25:14;100502.78;;;26.98;32.06
22031;BME280;11179;52.106;21.024;2023-06-10T06:27:40;100504.50;;;27.02;32.23
22031;BME280;11179;52.106;21.024;2023-06-10T06:30:06;100506.41;;;27.14;31.80
22031;BME280;11179;52.106;21.024;2023-06-10T06:32:31;100516.06;;;26.97;31.91
22031;BME280;11179;52.106;21.024;2023-06-10T06:34:57;100507.97;;;26.80;31.98
22031;BME280;11179;52.106;21.024;2023-06-10T06:37:23;100511.97;;;26.95;32.22
22031;BME280;11179;52.106;21.024;2023-06-10T06:39:50;100498.91;;;27.57;31.94
22031;BME280;11179;52.106;21.024;2023-06-10T06:42:16;100516.81;;;28.22;31.53
22031;BME280;11179;52.106;21.024;2023-06-10T06:44:42;100505.91;;;28.21;30.42
22031;BME280;11179;52.106;21.024;2023-06-10T06:47:07;100501.13;;;28.25;30.44
22031;BME280;11179;52.106;21.024;2023-06-10T06:49:32;100508.31;;;28.64;30.30
22031;BME280;11179;52.106;21.024;2023-06-10T06:51:58;100518.91;;;28.94;29.67
22031;BME280;11179;52.106;21.024;2023-06-10T06:54:23;100511.91;;;29.37;29.72
22031;BME280;11179;52.106;21.024;2023-06-10T06:56:48;100513.63;;;29.41;28.89
22031;BME280;11179;52.106;21.024;2023-06-10T06:59:14;100523.09;;;29.26;29.18
22031;BME280;11179;52.106;21.024;2023-06-10T07:01:39;100517.34;;;29.49;28.98
22031;BME280;11179;52.106;21.024;2023-06-10T07:04:05;100530.31;;;29.24;29.06
22031;BME280;11179;52.106;21.024;2023-06-10T07:06:30;100523.94;;;28.81;29.30
22031;BME280;11179;52.106;21.024;2023-06-10T07:08:56;100526.97;;;28.27;29.77
22031;BME280;11179;52.106;21.024;2023-06-10T07:11:23;100524.31;;;28.79;29.63
22031;BME280;11179;52.106;21.024;2023-06-10T07:13:48;100526.47;;;28.86;29.24
22031;BME280;11179;52.106;21.024;2023-06-10T07:16:13;100530.09;;;28.64;29.25
22031;BME280;11179;52.106;21.024;2023-06-10T07:18:39;100524.41;;;28.60;29.51
22031;BME280;11179;52.106;21.024;2023-06-10T07:21:05;100529.56;;;29.04;29.90
22031;BME280;11179;52.106;21.024;2023-06-10T07:23:30;100525.13;;;29.85;28.74
22031;BME280;11179;52.106;21.024;2023-06-10T07:25:55;100529.44;;;30.43;28.59
22031;BME280;11179;52.106;21.024;2023-06-10T07:28:21;100515.22;;;30.80;27.94
22031;BME280;11179;52.106;21.024;2023-06-10T07:30:46;100529.28;;;31.13;27.63
22031;BME280;11179;52.106;21.024;2023-06-10T07:33:11;100519.25;;;30.75;26.63
22031;BME280;11179;52.106;21.024;2023-06-10T07:35:37;100535.72;;;30.22;27.28
22031;BME280;11179;52.106;21.024;2023-06-10T07:38:02;100536.22;;;30.31;27.50
22031;BME280;11179;52.106;21.024;2023-06-10T07:40:27;100531.00;;;29.43;27.91
22031;BME280;11179;52.106;21.024;2023-06-10T07:42:52;100530.00;;;29.06;28.67
22031;BME280;11179;52.106;21.024;2023-06-10T07:45:18;100534.25;;;29.45;28.56
22031;BME280;11179;52.106;21.024;2023-06-10T07:47:43;100534.84;;;29.58;28.40
22031;BME280;11179;52.106;21.024;2023-06-10T07:50:10;100538.19;;;29.94;28.51
22031;BME280;11179;52.106;21.024;2023-06-10T07:52:35;100537.00;;;29.98;28.12
22031;BME280;11179;52.106;21.024;2023-06-10T07:55:00;100537.16;;;30.12;28.51
22031;BME280;11179;52.106;21.024;2023-06-10T07:57:25;100533.28;;;30.24;27.83
22031;BME280;11179;52.106;21.024;2023-06-10T07:59:51;100539.63;;;30.51;27.36
22031;BME280;11179;52.106;21.024;2023-06-10T08:02:17;100536.84;;;30.54;27.18
22031;BME280;11179;52.106;21.024;2023-06-10T08:04:42;100539.44;;;30.70;27.06
22031;BME280;11179;52.106;21.024;2023-06-10T08:07:07;100538.72;;;30.80;27.33
22031;BME280;11179;52.106;21.024;2023-06-10T08:09:33;100535.09;;;31.31;26.46
22031;BME280;11179;52.106;21.024;2023-06-10T08:11:58;100539.44;;;31.76;26.13
22031;BME280;11179;52.106;21.024;2023-06-10T08:14:23;100545.72;;;31.41;25.20
22031;BME280;11179;52.106;21.024;2023-06-10T08:16:49;100544.00;;;31.33;25.38
22031;BME280;11179;52.106;21.024;2023-06-10T08:19:14;100532.41;;;31.59;25.66
22031;BME280;11179;52.106;21.024;2023-06-10T08:21:39;100528.81;;;31.70;24.90
22031;BME280;11179;52.106;21.024;2023-06-10T08:24:09;100543.56;;;31.24;24.56
22031;BME280;11179;52.106;21.024;2023-06-10T08:26:34;100554.25;;;29.86;25.36
22031;BME280;11179;52.106;21.024;2023-06-10T08:29:00;100549.41;;;29.86;26.00
22031;BME280;11179;52.106;21.024;2023-06-10T08:31:25;100542.84;;;30.12;25.92
22031;BME280;11179;52.106;21.024;2023-06-10T08:33:50;100545.31;;;30.17;25.71
22031;BME280;11179;52.106;21.024;2023-06-10T08:36:16;100548.94;;;29.81;24.98
22031;BME280;11179;52.106;21.024;2023-06-10T08:38:41;100543.81;;;29.64;25.48
22031;BME280;11179;52.106;21.024;2023-06-10T08:41:08;100541.25;;;29.25;26.14
22031;BME280;11179;52.106;21.024;2023-06-10T08:43:48;100536.19;;;29.98;26.57
22031;BME280;11179;52.106;21.024;2023-06-10T08:46:19;100535.44;;;30.34;26.04
22031;BME280;11179;52.106;21.024;2023-06-10T08:48:45;100539.72;;;30.58;25.56
22031;BME280;11179;52.106;21.024;2023-06-10T08:51:14;100533.13;;;30.87;25.25
22031;BME280;11179;52.106;21.024;2023-06-10T08:53:50;100543.28;;;30.88;24.89
22031;BME280;11179;52.106;21.024;2023-06-10T08:56:16;100541.25;;;31.40;24.58
22031;BME280;11179;52.106;21.024;2023-06-10T08:58:42;100546.28;;;31.75;24.53
22031;BME280;11179;52.106;21.024;2023-06-10T09:01:08;100548.94;;;31.43;23.53
22031;BME280;11179;52.106;21.024;2023-06-10T09:03:38;100544.91;;;30.49;23.49
22031;BME280;11179;52.106;21.024;2023-06-10T09:06:05;100553.00;;;30.17;24.40
22031;BME280;11179;52.106;21.024;2023-06-10T09:08:31;100553.66;;;30.03;24.57
22031;BME280;11179;52.106;21.024;2023-06-10T09:10:58;100550.19;;;29.57;24.94
22031;BME280;11179;52.106;21.024;2023-06-10T09:13:23;100545.75;;;29.07;25.74
22031;BME280;11179;52.106;21.024;2023-06-10T09:15:48;100552.13;;;28.77;23.72
22031;BME280;11179;52.106;21.024;2023-06-10T09:18:16;100560.38;;;28.86;24.38
22031;BME280;11179;52.106;21.024;2023-06-10T09:20:43;100550.16;;;29.04;25.04
22031;BME280;11179;52.106;21.024;2023-06-10T09:23:08;100557.16;;;28.88;25.31
22031;BME280;11179;52.106;21.024;2023-06-10T09:25:38;100554.41;;;28.68;26.05
22031;BME280;11179;52.106;21.024;2023-06-10T09:28:04;100562.09;;;28.48;26.51
22031;BME280;11179;52.106;21.024;2023-06-10T09:30:31;100553.53;;;28.22;26.60
22031;BME280;11179;52.106;21.024;2023-06-10T09:32:58;100557.00;;;28.16;26.04
22031;BME280;11179;52.106;21.024;2023-06-10T09:35:24;100562.81;;;28.65;24.74
22031;BME280;11179;52.106;21.024;2023-06-10T09:37:53;100560.31;;;28.82;23.98
22031;BME280;11179;52.106;21.024;2023-06-10T09:40:19;100557.41;;;29.02;23.69
22031;BME280;11179;52.106;21.024;2023-06-10T09:42:44;100561.56;;;28.62;24.37
22031;BME280;11179;52.106;21.024;2023-06-10T09:45:10;100562.25;;;28.56;25.33
22031;BME280;11179;52.106;21.024;2023-06-10T09:47:35;100557.53;;;28.86;24.95
22031;BME280;11179;52.106;21.024;2023-06-10T09:50:01;100558.78;;;28.24;24.11
22031;BME280;11179;52.106;21.024;2023-06-10T09:52:28;100554.59;;;27.60;25.61
22031;BME280;11179;52.106;21.024;2023-06-10T09:54:59;100567.22;;;27.85;25.70
22031;BME280;11179;52.106;21.024;2023-06-10T09:57:25;100552.81;;;27.90;24.84
22031;BME280;11179;52.106;21.024;2023-06-10T09:59:54;100557.19;;;28.45;24.68
22031;BME280;11179;52.106;21.024;2023-06-10T10:02:20;100558.59;;;28.78;23.96
22031;BME280;11179;52.106;21.024;2023-06-10T10:04:45;100565.44;;;28.54;23.84
22031;BME280;11179;52.106;21.024;2023-06-10T10:07:11;100562.38;;;28.21;23.82
22031;BME280;11179;52.106;21.024;2023-06-10T10:09:38;100562.66;;;27.96;24.32
22031;BME280;11179;52.106;21.024;2023-06-10T10:12:11;100551.53;;;28.03;24.26
22031;BME280;11179;52.106;21.024;2023-06-10T10:14:38;100559.38;;;28.13;24.48
22031;BME280;11179;52.106;21.024;2023-06-10T10:17:07;100560.41;;;28.25;24.73
22031;BME280;11179;52.106;21.024;2023-06-10T10:19:39;100562.38;;;28.43;24.76
22031;BME280;11179;52.106;21.024;2023-06-10T10:22:08;100542.09;;;28.57;24.50
22031;BME280;11179;52.106;21.024;2023-06-10T10:24:38;100545.88;;;28.88;25.39
22031;BME280;11179;52.106;21.024;2023-06-10T10:27:13;100550.09;;;29.24;24.67
22031;BME280;11179;52.106;21.024;2023-06-10T10:29:40;100549.97;;;29.43;24.19
22031;BME280;11179;52.106;21.024;2023-06-10T10:32:06;100562.53;;;29.45;23.60
22031;BME280;11179;52.106;21.024;2023-06-10T10:34:43;100544.97;;;28.83;24.13
22031;BME280;11179;52.106;21.024;2023-06-10T10:37:13;100549.41;;;29.07;24.25
22031;BME280;11179;52.106;21.024;2023-06-10T10:39:39;100539.69;;;29.31;23.91
22031;BME280;11179;52.106;21.024;2023-06-10T10:42:05;100546.50;;;29.53;23.97
22031;BME280;11179;52.106;21.024;2023-06-10T10:44:35;100544.94;;;29.85;23.93
22031;BME280;11179;52.106;21.024;2023-06-10T10:47:02;100550.13;;;29.80;23.56
22031;BME280;11179;52.106;21.024;2023-06-10T10:49:30;100543.84;;;29.11;23.51
22031;BME280;11179;52.106;21.024;2023-06-10T10:52:00;100550.03;;;28.52;21.98
22031;BME280;11179;52.106;21.024;2023-06-10T10:54:36;100560.34;;;28.02;22.70
22031;BME280;11179;52.106;21.024;2023-06-10T11:00:03;100547.78;;;27.80;23.77
22031;BME280;11179;52.106;21.024;2023-06-10T11:04:58;100546.28;;;27.86;23.85
22031;BME280;11179;52.106;21.024;2023-06-10T11:07:30;100549.84;;;27.29;24.70
22031;BME280;11179;52.106;21.024;2023-06-10T11:12:50;100541.88;;;27.34;24.26
22031;BME280;11179;52.106;21.024;2023-06-10T11:15:26;100537.78;;;27.48;24.46
22031;BME280;11179;52.106;21.024;2023-06-10T11:18:29;100533.44;;;27.89;23.95
22031;BME280;11179;52.106;21.024;2023-06-10T11:21:04;100542.44;;;27.94;23.97
22031;BME280;11179;52.106;21.024;2023-06-10T11:26:10;100539.28;;;27.61;25.20
22031;BME280;11179;52.106;21.024;2023-06-10T11:28:37;100540.94;;;27.62;25.03
22031;BME280;11179;52.106;21.024;2023-06-10T11:31:02;100533.50;;;27.73;25.35
22031;BME280;11179;52.106;21.024;2023-06-10T11:33:28;100536.19;;;27.85;25.04
22031;BME280;11179;52.106;21.024;2023-06-10T11:35:54;100540.88;;;27.77;25.33
22031;BME280;11179;52.106;21.024;2023-06-10T11:38:20;100540.34;;;27.72;24.99
22031;BME280;11179;52.106;21.024;2023-06-10T11:40:48;100539.59;;;27.75;25.46
22031;BME280;11179;52.106;21.024;2023-06-10T11:43:15;100535.16;;;27.93;25.72
22031;BME280;11179;52.106;21.024;2023-06-10T11:45:41;100530.16;;;27.87;26.30
22031;BME280;11179;52.106;21.024;2023-06-10T11:48:06;100545.03;;;27.64;27.35
22031;BME280;11179;52.106;21.024;2023-06-10T11:50:32;100536.47;;;27.41;27.95
22031;BME280;11179;52.106;21.024;2023-06-10T11:52:58;100529.88;;;27.37;27.63
22031;BME280;11179;52.106;21.024;2023-06-10T11:55:44;100523.78;;;27.51;28.41
22031;BME280;11179;52.106;21.024;2023-06-10T11:58:17;100519.88;;;27.56;27.90
22031;BME280;11179;52.106;21.024;2023-06-10T12:00:55;100529.44;;;27.35;28.21
22031;BME280;11179;52.106;21.024;2023-06-10T12:03:26;100530.31;;;27.04;29.40
22031;BME280;11179;52.106;21.024;2023-06-10T12:06:03;100529.03;;;26.55;29.88
22031;BME280;11179;52.106;21.024;2023-06-10T12:08:29;100524.03;;;26.48;30.05
22031;BME280;11179;52.106;21.024;2023-06-10T12:10:56;100528.59;;;26.68;29.87
22031;BME280;11179;52.106;21.024;2023-06-10T12:13:22;100524.78;;;26.61;30.97
22031;BME280;11179;52.106;21.024;2023-06-10T12:15:49;100521.03;;;26.57;30.75
22031;BME280;11179;52.106;21.024;2023-06-10T12:18:18;100530.66;;;26.56;31.52
22031;BME280;11179;52.106;21.024;2023-06-10T12:20:46;100521.06;;;26.72;31.10
22031;BME280;11179;52.106;21.024;2023-06-10T12:23:17;100521.34;;;26.83;30.72
22031;BME280;11179;52.106;21.024;2023-06-10T12:25:51;100518.31;;;26.92;31.05
22031;BME280;11179;52.106;21.024;2023-06-10T12:28:17;100514.31;;;27.08;30.97
22031;BME280;11179;52.106;21.024;2023-06-10T12:30:47;100500.41;;;27.35;30.90
22031;BME280;11179;52.106;21.024;2023-06-10T12:33:20;100497.38;;;27.24;30.65
22031;BME280;11179;52.106;21.024;2023-06-10T12:35:49;100508.66;;;27.08;31.17
22031;BME280;11179;52.106;21.024;2023-06-10T12:38:21;100509.88;;;26.76;31.68
22031;BME280;11179;52.106;21.024;2023-06-10T12:40:47;100504.84;;;26.38;32.02
22031;BME280;11179;52.106;21.024;2023-06-10T12:43:12;100491.63;;;26.11;32.42
22031;BME280;11179;52.106;21.024;2023-06-10T12:45:39;100507.03;;;26.29;32.49
22031;BME280;11179;52.106;21.024;2023-06-10T12:48:08;100498.03;;;26.23;33.06
22031;BME280;11179;52.106;21.024;2023-06-10T12:50:35;100515.94;;;26.03;33.23
22031;BME280;11179;52.106;21.024;2023-06-10T12:53:02;100499.00;;;25.87;33.09